sensor_id;sensor_type;location;lat;lon;timestamp;temperature;humidity
21355;DHT22;10835;50.148;19.760;2023-02-04T00:00:35;13.50;58.50
21355;DHT22;10835;50.148;19.760;2023-02-04T00:03:04;13.30;58.80
21355;DHT22;10835;50.148;19.760;2023-02-04T00:05:34;13.50;59.20
21355;DHT22;10835;50.148;19.760;2023-02-04T00:08:02;13.50;58.80
21355;DHT22;10835;50.148;19.760;2023-02-04T00:10:30;13.30;59.00
21355;DHT22;10835;50.148;19.760;2023-02-04T00:12:59;13.20;59.50
21355;DHT22;10835;50.148;19.760;2023-02-04T00:15:27;13.00;59.80
21355;DHT22;10835;50.148;19.760;2023-02-04T00:17:55;13.00;59.90
21355;DHT22;10835;50.148;19.760;2023-02-04T00:20:23;12.80;60.50
21355;DHT22;10835;50.148;19.760;2023-02-04T00:22:52;12.60;61.00
21355;DHT22;10835;50.148;19.760;2023-02-04T00:25:20;12.50;62.40
21355;DHT22;10835;50.148;19.760;2023-02-04T00:27:48;12.70;61.80
21355;DHT22;10835;50.148;19.760;2023-02-04T00:30:16;12.80;61.50
21355;DHT22;10835;50.148;19.760;2023-02-04T00:32:44;12.40;62.10
21355;DHT22;10835;50.148;19.760;2023-02-04T00:35:12;12.40;62.60
21355;DHT22;10835;50.148;19.760;2023-02-04T00:37:40;12.60;62.50
21355;DHT22;10835;50.148;19.760;2023-02-04T00:40:13;13.10;61.50
21355;DHT22;10835;50.148;19.760;2023-02-04T00:42:41;13.10;60.60
21355;DHT22;10835;50.148;19.760;2023-02-04T00:45:09;13.20;60.00
21355;DHT22;10835;50.148;19.760;2023-02-04T00:47:38;12.80;61.10
21355;DHT22;10835;50.148;19.760;2023-02-04T00:50:06;12.90;61.80
21355;DHT22;10835;50.148;19.760;2023-02-04T00:52:34;13.00;61.00
21355;DHT22;10835;50.148;19.760;2023-02-04T00:55:02;13.10;60.00
21355;DHT22;10835;50.148;19.760;2023-02-04T00:57:32;13.50;59.30
21355;DHT22;10835;50.148;19.760;2023-02-04T00:59:59;12.70;60.70
21355;DHT22;10835;50.148;19.760;2023-02-04T01:02:28;12.50;61.70
21355;DHT22;10835;50.148;19.760;2023-02-04T01:04:56;12.60;61.10
21355;DHT22;10835;50.148;19.760;2023-02-04T01:07:24;13.00;60.60
21355;DHT22;10835;50.148;19.760;2023-02-04T01:09:52;13.00;59.90
21355;DHT22;10835;50.148;19.760;2023-02-04T01:12:20;12.80;60.40
21355;DHT22;10835;50.148;19.760;2023-02-04T01:14:50;12.90;60.20
21355;DHT22;10835;50.148;19.760;2023-02-04T01:17:18;13.10;60.00
21355;DHT22;10835;50.148;19.760;2023-02-04T01:19:46;13.20;59.30
21355;DHT22;10835;50.148;19.760;2023-02-04T01:22:14;12.90;60.40
21355;DHT22;10835;50.148;19.760;2023-02-04T01:24:43;13.00;60.00
21355;DHT22;10835;50.148;19.760;2023-02-04T01:27:29;13.10;59.30
21355;DHT22;10835;50.148;19.760;2023-02-04T01:29:58;13.80;58.70
21355;DHT22;10835;50.148;19.760;2023-02-04T01:32:26;14.20;57.40
21355;DHT22;10835;50.148;19.760;2023-02-04T01:34:54;14.10;57.30
21355;DHT22;10835;50.148;19.760;2023-02-04T01:37:23;14.10;57.40
21355;DHT22;10835;50.148;19.760;2023-02-04T01:39:51;13.60;57.70
21355;DHT22;10835;50.148;19.760;2023-02-04T01:42:19;13.70;58.00
21355;DHT22;10835;50.148;19.760;2023-02-04T01:44:47;13.90;57.40
21355;DHT22;10835;50.148;19.760;2023-02-04T01:47:17;13.70;57.90
21355;DHT22;10835;50.148;19.760;2023-02-04T01:49:46;14.00;57.90
21355;DHT22;10835;50.148;19.760;2023-02-04T01:52:17;13.80;57.50
21355;DHT22;10835;50.148;19.760;2023-02-04T01:54:46;14.10;58.00
21355;DHT22;10835;50.148;19.760;2023-02-04T01:57:16;14.50;56.60
21355;DHT22;10835;50.148;19.760;2023-02-04T01:59:45;14.00;57.60
21355;DHT22;10835;50.148;19.760;2023-02-04T02:02:40;13.50;58.00
21355;DHT22;10835;50.148;19.760;2023-02-04T02:05:09;13.20;59.20
21355;DHT22;10835;50.148;19.760;2023-02-04T02:07:38;13.10;59.60
21355;DHT22;10835;50.148;19.760;2023-02-04T02:10:08;12.90;59.90
21355;DHT22;10835;50.148;19.760;2023-02-04T02:12:37;12.50;61.50
21355;DHT22;10835;50.148;19.760;2023-02-04T02:15:09;12.40;61.50
21355;DHT22;10835;50.148;19.760;2023-02-04T02:17:37;12.00;62.10
21355;DHT22;10835;50.148;19.760;2023-02-04T02:20:08;11.70;63.40
21355;DHT22;10835;50.148;19.760;2023-02-04T02:22:43;11.60;63.50
21355;DHT22;10835;50.148;19.760;2023-02-04T02:25:14;11.10;64.10
21355;DHT22;10835;50.148;19.760;2023-02-04T02:27:42;10.80;65.20
21355;DHT22;10835;50.148;19.760;2023-02-04T02:30:13;10.50;66.10
21355;DHT22;10835;50.148;19.760;2023-02-04T02:32:43;10.70;66.40
21355;DHT22;10835;50.148;19.760;2023-02-04T02:35:12;11.00;65.90
21355;DHT22;10835;50.148;19.760;2023-02-04T02:37:41;11.20;64.00
21355;DHT22;10835;50.148;19.760;2023-02-04T02:40:13;11.00;64.30
21355;DHT22;10835;50.148;19.760;2023-02-04T02:42:42;10.90;64.50
21355;DHT22;10835;50.148;19.760;2023-02-04T02:45:14;10.70;64.90
21355;DHT22;10835;50.148;19.760;2023-02-04T02:47:44;10.20;66.20
21355;DHT22;10835;50.148;19.760;2023-02-04T02:50:16;10.60;66.50
21355;DHT22;10835;50.148;19.760;2023-02-04T02:52:46;10.50;65.40
21355;DHT22;10835;50.148;19.760;2023-02-04T02:55:17;10.60;64.90
21355;DHT22;10835;50.148;19.760;2023-02-04T02:57:47;10.40;65.50
21355;DHT22;10835;50.148;19.760;2023-02-04T03:00:19;10.10;66.60
21355;DHT22;10835;50.148;19.760;2023-02-04T03:02:54;9.90;66.90
21355;DHT22;10835;50.148;19.760;2023-02-04T03:05:24;10.20;66.70
21355;DHT22;10835;50.148;19.760;2023-02-04T03:07:52;10.00;66.60
21355;DHT22;10835;50.148;19.760;2023-02-04T03:10:22;10.00;67.00
21355;DHT22;10835;50.148;19.760;2023-02-04T03:12:50;9.70;67.20
21355;DHT22;10835;50.148;19.760;2023-02-04T03:15:18;9.70;67.90
21355;DHT22;10835;50.148;19.760;2023-02-04T03:17:46;9.90;67.60
21355;DHT22;10835;50.148;19.760;2023-02-04T03:20:15;9.70;67.80
21355;DHT22;10835;50.148;19.760;2023-02-04T03:22:43;9.00;68.60
21355;DHT22;10835;50.148;19.760;2023-02-04T03:25:11;9.30;68.80
21355;DHT22;10835;50.148;19.760;2023-02-04T03:27:41;9.00;69.00
21355;DHT22;10835;50.148;19.760;2023-02-04T03:30:09;8.80;70.20
21355;DHT22;10835;50.148;19.760;2023-02-04T03:32:37;9.20;70.40
21355;DHT22;10835;50.148;19.760;2023-02-04T03:35:07;9.30;69.00
21355;DHT22;10835;50.148;19.760;2023-02-04T03:37:35;9.50;68.90
21355;DHT22;10835;50.148;19.760;2023-02-04T03:40:04;9.70;68.30
21355;DHT22;10835;50.148;19.760;2023-02-04T03:42:32;10.20;66.70
21355;DHT22;10835;50.148;19.760;2023-02-04T03:45:02;10.80;65.00
21355;DHT22;10835;50.148;19.760;2023-02-04T03:47:30;11.60;63.00
21355;DHT22;10835;50.148;19.760;2023-02-04T03:49:58;11.30;61.80
21355;DHT22;10835;50.148;19.760;2023-02-04T03:52:26;11.10;62.70
21355;DHT22;10835;50.148;19.760;2023-02-04T03:54:54;11.10;63.00
21355;DHT22;10835;50.148;19.760;2023-02-04T03:57:22;10.90;62.50
21355;DHT22;10835;50.148;19.760;2023-02-04T03:59:50;10.20;64.00
21355;DHT22;10835;50.148;19.760;2023-02-04T04:02:20;9.60;66.50
21355;DHT22;10835;50.148;19.760;2023-02-04T04:04:48;9.40;67.70
21355;DHT22;10835;50.148;19.760;2023-02-04T04:07:15;10.90;67.20
21355;DHT22;10835;50.148;19.760;2023-02-04T04:09:43;10.80;63.80
21355;DHT22;10835;50.148;19.760;2023-02-04T04:12:11;11.10;64.40
21355;DHT22;10835;50.148;19.760;2023-02-04T04:14:39;11.30;63.20
21355;DHT22;10835;50.148;19.760;2023-02-04T04:17:07;11.80;61.20
21355;DHT22;10835;50.148;19.760;2023-02-04T04:19:36;12.30;59.00
21355;DHT22;10835;50.148;19.760;2023-02-04T04:22:04;12.80;57.90
21355;DHT22;10835;50.148;19.760;2023-02-04T04:24:32;13.00;56.60
21355;DHT22;10835;50.148;19.760;2023-02-04T04:27:00;13.20;55.50
21355;DHT22;10835;50.148;19.760;2023-02-04T04:29:28;12.70;56.20
21355;DHT22;10835;50.148;19.760;2023-02-04T04:31:56;12.70;56.30
21355;DHT22;10835;50.148;19.760;2023-02-04T04:34:24;12.80;56.00
21355;DHT22;10835;50.148;19.760;2023-02-04T04:36:53;12.90;55.50
21355;DHT22;10835;50.148;19.760;2023-02-04T04:39:21;12.90;55.40
21355;DHT22;10835;50.148;19.760;2023-02-04T04:41:50;13.00;55.10
21355;DHT22;10835;50.148;19.760;2023-02-04T04:44:18;13.10;54.40
21355;DHT22;10835;50.148;19.760;2023-02-04T04:46:46;13.10;54.00
21355;DHT22;10835;50.148;19.760;2023-02-04T04:49:14;13.40;53.40
21355;DHT22;10835;50.148;19.760;2023-02-04T04:51:42;13.60;53.70
21355;DHT22;10835;50.148;19.760;2023-02-04T04:54:12;13.60;52.70
21355;DHT22;10835;50.148;19.760;2023-02-04T04:56:39;13.60;52.10
21355;DHT22;10835;50.148;19.760;2023-02-04T04:59:07;12.90;52.40
21355;DHT22;10835;50.148;19.760;2023-02-04T05:01:35;12.30;53.30
21355;DHT22;10835;50.148;19.760;2023-02-04T05:04:05;11.80;54.50
21355;DHT22;10835;50.148;19.760;2023-02-04T05:06:33;11.60;54.80
21355;DHT22;10835;50.148;19.760;2023-02-04T05:09:01;11.70;55.00
21355;DHT22;10835;50.148;19.760;2023-02-04T05:11:32;12.00;54.80
21355;DHT22;10835;50.148;19.760;2023-02-04T05:14:00;12.20;54.20
21355;DHT22;10835;50.148;19.760;2023-02-04T05:16:28;12.30;53.70
21355;DHT22;10835;50.148;19.760;2023-02-04T05:18:56;12.10;53.70
21355;DHT22;10835;50.148;19.760;2023-02-04T05:21:24;12.20;53.60
21355;DHT22;10835;50.148;19.760;2023-02-04T05:23:52;12.00;53.80
21355;DHT22;10835;50.148;19.760;2023-02-04T05:26:20;12.00;54.20
21355;DHT22;10835;50.148;19.760;2023-02-04T05:28:58;12.00;53.80
21355;DHT22;10835;50.148;19.760;2023-02-04T05:31:27;11.50;54.80
21355;DHT22;10835;50.148;19.760;2023-02-04T05:33:56;11.40;54.40
21355;DHT22;10835;50.148;19.760;2023-02-04T05:36:24;11.50;55.10
21355;DHT22;10835;50.148;19.760;2023-02-04T05:38:52;11.60;54.70
21355;DHT22;10835;50.148;19.760;2023-02-04T05:41:19;11.60;54.10
21355;DHT22;10835;50.148;19.760;2023-02-04T05:43:47;11.30;54.60
21355;DHT22;10835;50.148;19.760;2023-02-04T05:46:17;11.50;54.80
21355;DHT22;10835;50.148;19.760;2023-02-04T05:48:44;11.60;54.30
21355;DHT22;10835;50.148;19.760;2023-02-04T05:51:12;11.70;53.80
21355;DHT22;10835;50.148;19.760;2023-02-04T05:53:41;12.20;52.90
21355;DHT22;10835;50.148;19.760;2023-02-04T05:56:09;12.20;52.20
21355;DHT22;10835;50.148;19.760;2023-02-04T05:58:36;11.80;52.70
21355;DHT22;10835;50.148;19.760;2023-02-04T06:01:05;11.20;53.80
21355;DHT22;10835;50.148;19.760;2023-02-04T06:03:35;11.70;54.10
21355;DHT22;10835;50.148;19.760;2023-02-04T06:06:03;11.60;53.60
21355;DHT22;10835;50.148;19.760;2023-02-04T06:08:31;11.50;53.50
21355;DHT22;10835;50.148;19.760;2023-02-04T06:10:59;11.40;53.80
21355;DHT22;10835;50.148;19.760;2023-02-04T06:13:27;10.90;54.10
21355;DHT22;10835;50.148;19.760;2023-02-04T06:15:55;10.70;54.70
21355;DHT22;10835;50.148;19.760;2023-02-04T06:18:23;10.60;55.00
21355;DHT22;10835;50.148;19.760;2023-02-04T06:20:52;10.00;55.20
21355;DHT22;10835;50.148;19.760;2023-02-04T06:23:20;10.10;55.70
21355;DHT22;10835;50.148;19.760;2023-02-04T06:25:48;10.20;55.10
21355;DHT22;10835;50.148;19.760;2023-02-04T06:28:16;10.00;55.40
21355;DHT22;10835;50.148;19.760;2023-02-04T06:30:44;10.10;55.40
21355;DHT22;10835;50.148;19.760;2023-02-04T06:33:12;10.10;55.10
21355;DHT22;10835;50.148;19.760;2023-02-04T06:35:40;10.00;55.30
21355;DHT22;10835;50.148;19.760;2023-02-04T06:38:09;10.70;55.30
21355;DHT22;10835;50.148;19.760;2023-02-04T06:40:37;10.80;53.60
21355;DHT22;10835;50.148;19.760;2023-02-04T06:43:05;10.60;53.70
21355;DHT22;10835;50.148;19.760;2023-02-04T06:45:33;10.20;53.90
21355;DHT22;10835;50.148;19.760;2023-02-04T06:48:01;10.50;53.70
21355;DHT22;10835;50.148;19.760;2023-02-04T06:50:29;10.60;53.50
21355;DHT22;10835;50.148;19.760;2023-02-04T06:52:57;11.00;52.70
21355;DHT22;10835;50.148;19.760;2023-02-04T06:55:27;11.00;52.00
21355;DHT22;10835;50.148;19.760;2023-02-04T06:57:55;10.80;52.70
21355;DHT22;10835;50.148;19.760;2023-02-04T07:00:23;11.10;52.40
21355;DHT22;10835;50.148;19.760;2023-02-04T07:02:51;11.00;51.80
21355;DHT22;10835;50.148;19.760;2023-02-04T07:05:19;11.40;51.70
21355;DHT22;10835;50.148;19.760;2023-02-04T07:07:47;11.30;51.60
21355;DHT22;10835;50.148;19.760;2023-02-04T07:10:17;10.90;51.40
21355;DHT22;10835;50.148;19.760;2023-02-04T07:12:47;10.90;51.80
21355;DHT22;10835;50.148;19.760;2023-02-04T07:15:16;10.60;52.30
21355;DHT22;10835;50.148;19.760;2023-02-04T07:17:44;10.70;52.30
21355;DHT22;10835;50.148;19.760;2023-02-04T07:20:11;10.60;52.70
21355;DHT22;10835;50.148;19.760;2023-02-04T07:22:39;10.70;51.90
21355;DHT22;10835;50.148;19.760;2023-02-04T07:25:08;10.80;52.20
21355;DHT22;10835;50.148;19.760;2023-02-04T07:27:37;10.90;52.10
21355;DHT22;10835;50.148;19.760;2023-02-04T07:30:08;11.00;51.70
21355;DHT22;10835;50.148;19.760;2023-02-04T07:32:36;11.10;51.00
21355;DHT22;10835;50.148;19.760;2023-02-04T07:35:05;11.20;51.40
21355;DHT22;10835;50.148;19.760;2023-02-04T07:37:33;11.00;51.30
21355;DHT22;10835;50.148;19.760;2023-02-04T07:40:01;11.00;51.40
21355;DHT22;10835;50.148;19.760;2023-02-04T07:42:29;10.70;51.70
21355;DHT22;10835;50.148;19.760;2023-02-04T07:45:07;10.90;51.60
21355;DHT22;10835;50.148;19.760;2023-02-04T07:47:35;11.60;51.50
21355;DHT22;10835;50.148;19.760;2023-02-04T07:50:03;11.70;50.50
21355;DHT22;10835;50.148;19.760;2023-02-04T07:52:31;11.70;49.70
21355;DHT22;10835;50.148;19.760;2023-02-04T07:54:59;11.10;49.40
21355;DHT22;10835;50.148;19.760;2023-02-04T07:57:28;10.70;50.30
21355;DHT22;10835;50.148;19.760;2023-02-04T07:59:59;10.80;51.00
21355;DHT22;10835;50.148;19.760;2023-02-04T08:02:28;11.10;50.60
21355;DHT22;10835;50.148;19.760;2023-02-04T08:04:56;11.30;50.30
21355;DHT22;10835;50.148;19.760;2023-02-04T08:07:24;11.40;50.30
21355;DHT22;10835;50.148;19.760;2023-02-04T08:09:52;11.20;50.40
21355;DHT22;10835;50.148;19.760;2023-02-04T08:12:20;11.50;49.90
21355;DHT22;10835;50.148;19.760;2023-02-04T08:14:48;11.80;49.10
21355;DHT22;10835;50.148;19.760;2023-02-04T08:17:16;12.00;48.90
21355;DHT22;10835;50.148;19.760;2023-02-04T08:19:45;12.10;48.70
21355;DHT22;10835;50.148;19.760;2023-02-04T08:22:13;12.10;48.20
21355;DHT22;10835;50.148;19.760;2023-02-04T08:24:41;12.10;48.20
21355;DHT22;10835;50.148;19.760;2023-02-04T08:27:09;11.90;47.80
21355;DHT22;10835;50.148;19.760;2023-02-04T08:29:37;11.80;48.50
21355;DHT22;10835;50.148;19.760;2023-02-04T08:32:05;11.70;48.10
21355;DHT22;10835;50.148;19.760;2023-02-04T08:34:35;11.40;48.50
21355;DHT22;10835;50.148;19.760;2023-02-04T08:37:05;11.70;48.40
21355;DHT22;10835;50.148;19.760;2023-02-04T08:39:34;11.70;48.50
21355;DHT22;10835;50.148;19.760;2023-02-04T08:42:02;11.70;48.50
21355;DHT22;10835;50.148;19.760;2023-02-04T08:44:30;12.00;48.60
21355;DHT22;10835;50.148;19.760;2023-02-04T08:46:58;12.10;47.90
21355;DHT22;10835;50.148;19.760;2023-02-04T08:49:26;12.70;47.40
21355;DHT22;10835;50.148;19.760;2023-02-04T08:51:54;12.70;46.00
21355;DHT22;10835;50.148;19.760;2023-02-04T08:54:24;12.40;46.40
21355;DHT22;10835;50.148;19.760;2023-02-04T08:56:52;12.90;46.40
21355;DHT22;10835;50.148;19.760;2023-02-04T08:59:20;12.90;45.70
21355;DHT22;10835;50.148;19.760;2023-02-04T09:01:49;13.00;45.90
21355;DHT22;10835;50.148;19.760;2023-02-04T09:04:21;13.20;46.20
21355;DHT22;10835;50.148;19.760;2023-02-04T09:06:50;13.00;45.90
21355;DHT22;10835;50.148;19.760;2023-02-04T09:09:19;13.20;45.70
21355;DHT22;10835;50.148;19.760;2023-02-04T09:11:53;13.20;45.10
21355;DHT22;10835;50.148;19.760;2023-02-04T09:14:21;13.10;44.80
21355;DHT22;10835;50.148;19.760;2023-02-04T09:16:49;12.50;45.30
21355;DHT22;10835;50.148;19.760;2023-02-04T09:19:17;12.20;46.00
21355;DHT22;10835;50.148;19.760;2023-02-04T09:21:51;12.10;46.50
21355;DHT22;10835;50.148;19.760;2023-02-04T09:24:19;12.00;47.20
21355;DHT22;10835;50.148;19.760;2023-02-04T09:26:50;11.40;48.00
21355;DHT22;10835;50.148;19.760;2023-02-04T09:29:18;11.90;48.80
21355;DHT22;10835;50.148;19.760;2023-02-04T09:31:46;12.60;48.80
21355;DHT22;10835;50.148;19.760;2023-02-04T09:34:14;12.50;46.80
21355;DHT22;10835;50.148;19.760;2023-02-04T09:36:42;12.80;46.80
21355;DHT22;10835;50.148;19.760;2023-02-04T09:39:10;13.00;46.40
21355;DHT22;10835;50.148;19.760;2023-02-04T09:41:39;13.40;45.70
21355;DHT22;10835;50.148;19.760;2023-02-04T09:44:13;13.60;45.30
21355;DHT22;10835;50.148;19.760;2023-02-04T09:46:46;13.30;44.90
21355;DHT22;10835;50.148;19.760;2023-02-04T09:49:14;13.00;45.70
21355;DHT22;10835;50.148;19.760;2023-02-04T09:51:43;13.00;45.60
21355;DHT22;10835;50.148;19.760;2023-02-04T09:54:13;12.50;45.80
21355;DHT22;10835;50.148;19.760;2023-02-04T09:56:42;12.80;46.40
21355;DHT22;10835;50.148;19.760;2023-02-04T09:59:14;12.70;45.80
21355;DHT22;10835;50.148;19.760;2023-02-04T10:01:42;13.20;45.60
21355;DHT22;10835;50.148;19.760;2023-02-04T10:04:12;13.50;45.30
21355;DHT22;10835;50.148;19.760;2023-02-04T10:06:41;13.30;45.40
21355;DHT22;10835;50.148;19.760;2023-02-04T10:09:10;14.00;44.90
21355;DHT22;10835;50.148;19.760;2023-02-04T10:11:41;13.30;44.60
21355;DHT22;10835;50.148;19.760;2023-02-04T10:14:15;13.50;45.10
21355;DHT22;10835;50.148;19.760;2023-02-04T10:16:47;13.40;44.40
21355;DHT22;10835;50.148;19.760;2023-02-04T10:19:17;12.90;44.30
21355;DHT22;10835;50.148;19.760;2023-02-04T10:21:45;12.80;43.60
21355;DHT22;10835;50.148;19.760;2023-02-04T10:24:16;12.80;45.80
21355;DHT22;10835;50.148;19.760;2023-02-04T10:26:44;12.30;44.90
21355;DHT22;10835;50.148;19.760;2023-02-04T10:29:16;12.10;46.00
21355;DHT22;10835;50.148;19.760;2023-02-04T10:31:47;12.90;44.80
21355;DHT22;10835;50.148;19.760;2023-02-04T10:34:17;13.00;43.40
21355;DHT22;10835;50.148;19.760;2023-02-04T10:36:48;13.30;43.80
21355;DHT22;10835;50.148;19.760;2023-02-04T10:39:20;13.80;43.60
21355;DHT22;10835;50.148;19.760;2023-02-04T10:41:49;13.80;42.70
21355;DHT22;10835;50.148;19.760;2023-02-04T10:44:23;14.50;42.50
21355;DHT22;10835;50.148;19.760;2023-02-04T10:46:57;14.20;40.60
21355;DHT22;10835;50.148;19.760;2023-02-04T10:49:26;13.90;40.30
21355;DHT22;10835;50.148;19.760;2023-02-04T10:51:56;13.50;40.90
21355;DHT22;10835;50.148;19.760;2023-02-04T10:54:28;13.60;40.80
21355;DHT22;10835;50.148;19.760;2023-02-04T10:57:12;12.80;42.70
21355;DHT22;10835;50.148;19.760;2023-02-04T10:59:45;13.60;41.40
21355;DHT22;10835;50.148;19.760;2023-02-04T11:02:33;13.00;41.90
21355;DHT22;10835;50.148;19.760;2023-02-04T11:05:05;11.80;42.20
21355;DHT22;10835;50.148;19.760;2023-02-04T11:07:39;11.00;44.40
21355;DHT22;10835;50.148;19.760;2023-02-04T11:10:12;11.10;46.70
21355;DHT22;10835;50.148;19.760;2023-02-04T11:12:42;11.90;45.00
21355;DHT22;10835;50.148;19.760;2023-02-04T11:15:37;11.90;44.10
21355;DHT22;10835;50.148;19.760;2023-02-04T11:18:07;12.30;43.00
21355;DHT22;10835;50.148;19.760;2023-02-04T11:20:39;12.50;43.30
21355;DHT22;10835;50.148;19.760;2023-02-04T11:23:28;13.00;43.50
21355;DHT22;10835;50.148;19.760;2023-02-04T11:26:04;13.90;42.20
21355;DHT22;10835;50.148;19.760;2023-02-04T11:28:49;13.00;40.70
21355;DHT22;10835;50.148;19.760;2023-02-04T11:31:42;12.40;41.60
21355;DHT22;10835;50.148;19.760;2023-02-04T11:34:24;12.30;41.30
21355;DHT22;10835;50.148;19.760;2023-02-04T11:37:12;12.40;41.90
21355;DHT22;10835;50.148;19.760;2023-02-04T11:39:42;12.60;41.80
21355;DHT22;10835;50.148;19.760;2023-02-04T11:42:16;13.00;40.30
21355;DHT22;10835;50.148;19.760;2023-02-04T11:44:52;12.20;40.00
21355;DHT22;10835;50.148;19.760;2023-02-04T11:47:24;12.00;40.20
21355;DHT22;10835;50.148;19.760;2023-02-04T11:49:55;11.30;41.80
21355;DHT22;10835;50.148;19.760;2023-02-04T11:52:24;11.10;41.90
21355;DHT22;10835;50.148;19.760;2023-02-04T11:54:53;11.70;41.80
21355;DHT22;10835;50.148;19.760;2023-02-04T11:57:21;12.20;40.80
21355;DHT22;10835;50.148;19.760;2023-02-04T11:59:49;12.50;40.20
21355;DHT22;10835;50.148;19.760;2023-02-04T12:02:19;12.40;39.10
21355;DHT22;10835;50.148;19.760;2023-02-04T12:04:54;13.10;40.20
21355;DHT22;10835;50.148;19.760;2023-02-04T12:07:27;13.60;40.50
21355;DHT22;10835;50.148;19.760;2023-02-04T12:09:56;14.00;37.40
21355;DHT22;10835;50.148;19.760;2023-02-04T12:12:27;14.00;37.50
21355;DHT22;10835;50.148;19.760;2023-02-04T12:15:08;13.90;37.10
21355;DHT22;10835;50.148;19.760;2023-02-04T12:17:43;13.40;37.90
21355;DHT22;10835;50.148;19.760;2023-02-04T12:20:13;13.20;37.90
21355;DHT22;10835;50.148;19.760;2023-02-04T12:22:41;13.20;38.50
21355;DHT22;10835;50.148;19.760;2023-02-04T12:25:10;13.30;39.20
21355;DHT22;10835;50.148;19.760;2023-02-04T12:27:42;12.80;38.80
21355;DHT22;10835;50.148;19.760;2023-02-04T12:30:11;12.80;40.10
21355;DHT22;10835;50.148;19.760;2023-02-04T12:32:39;12.20;41.00
21355;DHT22;10835;50.148;19.760;2023-02-04T12:35:07;12.60;40.60
21355;DHT22;10835;50.148;19.760;2023-02-04T12:37:36;12.30;39.30
21355;DHT22;10835;50.148;19.760;2023-02-04T12:40:05;12.40;39.00
21355;DHT22;10835;50.148;19.760;2023-02-04T12:42:33;12.20;38.90
21355;DHT22;10835;50.148;19.760;2023-02-04T12:45:01;12.20;39.00
21355;DHT22;10835;50.148;19.760;2023-02-04T12:47:29;12.00;39.20
21355;DHT22;10835;50.148;19.760;2023-02-04T12:49:57;12.30;39.80
21355;DHT22;10835;50.148;19.760;2023-02-04T12:52:26;12.30;40.00
21355;DHT22;10835;50.148;19.760;2023-02-04T12:54:55;12.60;39.60
21355;DHT22;10835;50.148;19.760;2023-02-04T12:57:24;13.00;38.80
21355;DHT22;10835;50.148;19.760;2023-02-04T12:59:52;12.50;38.30
21355;DHT22;10835;50.148;19.760;2023-02-04T13:02:23;12.40;39.40
21355;DHT22;10835;50.148;19.760;2023-02-04T13:04:51;11.70;40.30
21355;DHT22;10835;50.148;19.760;2023-02-04T13:07:19;12.10;42.00
21355;DHT22;10835;50.148;19.760;2023-02-04T13:09:47;12.10;41.00
21355;DHT22;10835;50.148;19.760;2023-02-04T13:12:17;12.10;40.60
21355;DHT22;10835;50.148;19.760;2023-02-04T13:14:45;11.50;41.00
21355;DHT22;10835;50.148;19.760;2023-02-04T13:17:15;11.50;41.40
21355;DHT22;10835;50.148;19.760;2023-02-04T13:19:44;11.90;41.10
21355;DHT22;10835;50.148;19.760;2023-02-04T13:22:11;11.80;40.40
21355;DHT22;10835;50.148;19.760;2023-02-04T13:24:39;12.50;41.20
21355;DHT22;10835;50.148;19.760;2023-02-04T13:27:11;13.00;40.00
21355;DHT22;10835;50.148;19.760;2023-02-04T13:29:40;12.80;38.00
21355;DHT22;10835;50.148;19.760;2023-02-04T13:32:08;11.90;38.40
21355;DHT22;10835;50.148;19.760;2023-02-04T13:34:38;12.20;39.00
21355;DHT22;10835;50.148;19.760;2023-02-04T13:37:06;11.80;39.30
21355;DHT22;10835;50.148;19.760;2023-02-04T13:39:34;11.10;40.90
21355;DHT22;10835;50.148;19.760;2023-02-04T13:42:03;11.00;40.90
21355;DHT22;10835;50.148;19.760;2023-02-04T13:44:31;10.80;41.60
21355;DHT22;10835;50.148;19.760;2023-02-04T13:47:01;10.30;42.50
21355;DHT22;10835;50.148;19.760;2023-02-04T13:49:28;9.90;43.20
21355;DHT22;10835;50.148;19.760;2023-02-04T13:51:57;10.10;44.60
21355;DHT22;10835;50.148;19.760;2023-02-04T13:54:25;9.50;44.80
21355;DHT22;10835;50.148;19.760;2023-02-04T13:56:52;9.50;45.30
21355;DHT22;10835;50.148;19.760;2023-02-04T13:59:20;8.80;46.80
21355;DHT22;10835;50.148;19.760;2023-02-04T14:01:48;9.40;47.30
21355;DHT22;10835;50.148;19.760;2023-02-04T14:04:20;9.10;47.00
21355;DHT22;10835;50.148;19.760;2023-02-04T14:06:48;8.60;48.30
21355;DHT22;10835;50.148;19.760;2023-02-04T14:09:19;9.50;49.10
21355;DHT22;10835;50.148;19.760;2023-02-04T14:11:47;9.00;48.00
21355;DHT22;10835;50.148;19.760;2023-02-04T14:14:15;9.50;48.20
21355;DHT22;10835;50.148;19.760;2023-02-04T14:16:43;10.30;47.20
21355;DHT22;10835;50.148;19.760;2023-02-04T14:19:11;10.20;46.20
21355;DHT22;10835;50.148;19.760;2023-02-04T14:21:41;10.10;46.00
21355;DHT22;10835;50.148;19.760;2023-02-04T14:24:09;9.70;46.10
21355;DHT22;10835;50.148;19.760;2023-02-04T14:26:37;9.90;47.20
21355;DHT22;10835;50.148;19.760;2023-02-04T14:29:04;10.30;46.40
21355;DHT22;10835;50.148;19.760;2023-02-04T14:31:33;10.40;45.40
21355;DHT22;10835;50.148;19.760;2023-02-04T14:34:02;10.00;46.50
21355;DHT22;10835;50.148;19.760;2023-02-04T14:36:30;10.90;46.40
21355;DHT22;10835;50.148;19.760;2023-02-04T14:38:59;10.90;45.30
21355;DHT22;10835;50.148;19.760;2023-02-04T14:41:27;11.00;45.30
21355;DHT22;10835;50.148;19.760;2023-02-04T14:43:56;11.10;45.00
21355;DHT22;10835;50.148;19.760;2023-02-04T14:46:24;11.40;44.70
21355;DHT22;10835;50.148;19.760;2023-02-04T14:48:52;10.60;44.60
21355;DHT22;10835;50.148;19.760;2023-02-04T14:51:20;10.20;45.80
21355;DHT22;10835;50.148;19.760;2023-02-04T14:53:48;10.40;46.20
21355;DHT22;10835;50.148;19.760;2023-02-04T14:56:20;10.20;46.00
21355;DHT22;10835;50.148;19.760;2023-02-04T14:58:48;9.80;46.40
21355;DHT22;10835;50.148;19.760;2023-02-04T15:01:16;9.70;47.70
21355;DHT22;10835;50.148;19.760;2023-02-04T15:03:45;10.70;46.90
21355;DHT22;10835;50.148;19.760;2023-02-04T15:06:13;10.40;45.70
21355;DHT22;10835;50.148;19.760;2023-02-04T15:08:41;10.50;45.50
21355;DHT22;10835;50.148;19.760;2023-02-04T15:11:10;10.60;46.10
21355;DHT22;10835;50.148;19.760;2023-02-04T15:13:40;10.60;46.20
21355;DHT22;10835;50.148;19.760;2023-02-04T15:16:08;10.20;45.90
21355;DHT22;10835;50.148;19.760;2023-02-04T15:18:38;10.50;46.40
21355;DHT22;10835;50.148;19.760;2023-02-04T15:21:06;10.50;46.00
21355;DHT22;10835;50.148;19.760;2023-02-04T15:23:33;11.10;46.20
21355;DHT22;10835;50.148;19.760;2023-02-04T15:26:02;11.10;45.40
21355;DHT22;10835;50.148;19.760;2023-02-04T15:28:29;11.00;45.00
21355;DHT22;10835;50.148;19.760;2023-02-04T15:30:59;9.20;47.40